KADW

Joint Base Andrews Airport

Camp Springs, Maryland, USA
TAF KADW 210900Z 2109/2215 23006KT 6000 BR FEW050 BKN140 QNH2972INS TEMPO 2109/2112 32006KT 8000 -SHRA BKN008 BECMG 2112/2113 36012KT 9999 NSW BKN020 QNH2976INS WND 07009KT AFT 2200 BECMG 2202/2203 08009KT 8000 -SHRA BKN020 BKN120 QNH2983INS BECMG 2214/2215 09010G15KT 8000 -SHRA BKN030 OVC070 QNH2992INS TX28/2119Z TN21/2209Z
Issued Valid From Valid To
Jun-21 @ 09:00 UTC
(an hour ago)
Jun-21 @ 09:00 UTC
(an hour ago)
Jun-22 @ 15:00 UTC
(-1 days ago)
Jun-21 @ 09:00 to Jun-21 @ 12:00
TAF KADW 210900Z 2109/2215 23006KT 6000 BR FEW050 BKN140 QNH2972INS
Wind Visibility Clouds Conditions Readings
230° at 6 knots 31/73 miles
  • Few at 5,000' AGL
  • Broken at 14,000' AGL
  • Mist
Altimeter 29.73" Hg
Pressure 1007 hPa
Temporary Jun-21 @ 09:00 to Jun-21 @ 12:00
TEMPO 2109/2112 32006KT 8000 -SHRA BKN008
Wind Visibility Clouds Conditions
320° at 6 knots 41/97 miles
  • Broken at 800' AGL
  • Light Rain
Becoming Jun-21 @ 12:00 to Jun-22 @ 02:00
BECMG 2112/2113 36012KT 9999 NSW BKN020 QNH2976INS WND 07009KT AFT 2200
Wind Visibility Clouds Conditions Readings
360° at 12 knots Greater than 6 miles
  • Broken at 2,000' AGL
Altimeter 29.76" Hg
Pressure 1008 hPa
Becoming Jun-22 @ 02:00 to Jun-22 @ 14:00
BECMG 2202/2203 08009KT 8000 -SHRA BKN020 BKN120 QNH2983INS
Wind Visibility Clouds Conditions Readings
80° at 9 knots 41/97 miles
  • Broken at 2,000' AGL
  • Broken at 12,000' AGL
  • Light Rain
Altimeter 29.82" Hg
Pressure 1010 hPa
Becoming Jun-22 @ 14:00 to Jun-22 @ 15:00
BECMG 2214/2215 09010G15KT 8000 -SHRA BKN030 OVC070 QNH2992INS TX28/2119Z TN21/2209Z
Wind Visibility Clouds Conditions Readings
90° at 10 knots
 Gusting to 15 knots
41/97 miles
  • Broken at 3,000' AGL
  • Overcast at 7,000' AGL
  • Light Rain
Altimeter 29.91" Hg
Pressure 1013 hPa
TAF KADW 210900Z 2109/2215 23006KT 6000 BR FEW050 BKN140 QNH2972INS TEMPO 2109/2112 32006KT 8000 -SHRA BKN008 BECMG 2112/2113 36012KT 9999 NSW BKN020 QNH2976INS WND 07009KT AFT 2200 BECMG 2202/2203 08009KT 8000 -SHRA BKN020 BKN120 QNH2983INS BECMG 2214/2215 09010G15KT 8000 -SHRA BKN030 OVC070 QNH2992INS TX28/2119Z TN21/2209Z
Issued Jun-21 @ 09:00 UTC
(an hour ago)
Valid From Jun-21 @ 09:00 UTC
(an hour ago)
Valid To Jun-22 @ 15:00 UTC
(-1 days ago)
Jun-21 @ 09:00 - Jun-21 @ 12:00
Wind Visibility
230° at 6 knots 31/73 miles
Clouds
  • Few at 5,000' AGL
  • Broken at 14,000' AGL
Conditions
  • Mist
Temporary Jun-21 @ 09:00 - Jun-21 @ 12:00
Wind Visibility
320° at 6 knots 41/97 miles
Clouds
  • Broken at 800' AGL
Conditions
  • Light Rain
Becoming Jun-21 @ 12:00 - Jun-22 @ 02:00
Wind Visibility
360° at 12 knots Greater than 6 miles
Clouds
  • Broken at 2,000' AGL
Conditions
Becoming Jun-22 @ 02:00 - Jun-22 @ 14:00
Wind Visibility
80° at 9 knots 41/97 miles
Clouds
  • Broken at 2,000' AGL
  • Broken at 12,000' AGL
Conditions
  • Light Rain
Becoming Jun-22 @ 14:00 - Jun-22 @ 15:00
Wind Visibility
90° at 10 knots
 Gusting to 15 knots
41/97 miles
Clouds
  • Broken at 3,000' AGL
  • Overcast at 7,000' AGL
Conditions
  • Light Rain